Lamoille, Minnesota
Current Conditions -  °F | °C
As of 6:14 AM on Friday 19 Dec 2014 (Local Time) from KONA Reporting Station
Overcast Overcast  
Wind Chill: 25°   Ceiling: 8000
Heat Index: 25°   Visibility: 10mi
Dew Point: 19°   Wind: 0mph
Humidity: 80%   Direction: NA
Pressure: 30.29"   Gusts: NA
Location:  43.9823°N, 91.6349°W
Report Text: KONA 191214Z AUTO 00000KT 10SM OVC080 M04/M07 A3029 RMK AO2
Loading
Personal Weather Stations






























Interactive Weather Map New forecast layout! Learn more

10-Day Weather Forecast

Advertisements
Track Severe Weather on mobile